UGKOURMM

Guest
Details From UGKO - KOPITNARI
To URMM - MINERALNYYE VODY
Flight Number -
Tags generated
Created
Modified
Stats Distance 126 nm / 233 km
Max Altitude 7,600 ft / 2,316 m
Waypoints 3
Social Downloads 0
Likes 0
Share

Download

Looking for another format? Having issues loading an existing format? Contact us
Advertisement - Login to hide

Notes

Basic altitude profile: - Ascent Rate: 2500ft/min - Ascent Speed: 250kts - Cruise Altitude: 35000ft - Cruise Speed: 420kts - Descent Rate: 1500ft/min - Descent Speed: 250kts Options: - Use NATs: yes - Use PACOTS: yes - Use low airways: yes - Use high airways: yes

Route

UGKO LORNA URMM

ID Type Via Altitude (ft/m) Position (lat/lon) Dist (leg/tot) Name
O UGKO APT - 0 / 0 42.17665 / 42.48258 - / 0 nm KOPITNARI
LORNA FIX - 7,600 / 2,316 43.65000 / 42.88333 90 / 90 nm
O URMM APT - 0 / 0 44.22507 / 43.08189 35 / 125 nm MINERALNYYE VODY

Altitude Profile

Advertisement - Login to hide

UGKO

Details ICAO UGKO (KUT)
Name Kutaisi Airport
Region Georgia
Timezone Asia/Tbilisi (UTC+4.0)
Stats Elevation 223 ft / 68 m (AMSL)
Location 42.176800° 42.482700°
Runways 1
Magnetic Variation 6.976° E

METAR

UGKO 282030Z 09023G35KT CAVOK 21/09 Q1014 NOSIG

Decode

TAF

TAF UGKO 281700Z 2818/2918 08021G32KT CAVOK TX30/2911Z TN17/2903Z TEMPO 2904/2909 08015KT TEMPO 2909/2918 08010KT

Decode

Departure Runways

ID Width Length Bearing (true/mag) Surface Threshold Overrun Markings Lighting
07 148 ft / 45 m 8,179 ft / 2,493 m 80.41° / 73.44° CONCRETE 0 ft / 0 m 0 ft / 0 m APP CENTERLINE TDZ
25 148 ft / 45 m 8,179 ft / 2,493 m 260.43° / 253.46° CONCRETE 0 ft / 0 m 0 ft / 0 m APP CENTERLINE TDZ

URMM

Details ICAO URMM (MRV)
Name Mineralnyye Vody Intl
Region Russia
Timezone Europe/Moscow (UTC+3.0)
Stats Elevation 1,046 ft / 319 m (AMSL)
Location 44.226800° 43.083000°
Runways 1
Magnetic Variation 7.638° E

METAR

URMM 282030Z 09004MPS 9999 OVC009 10/07 Q1019 R12/090070 TEMPO 0300 -SHRA FG BKN002 BKN020CB RMK MT OBSC QFE736/0982

Decode

TAF

TAF URMM 282000Z 2821/2921 09003G08MPS 9999 BKN020 TX17/2912Z TN07/2903Z TEMPO 2821/2908 0300 -SHRA FG BKN002 BKN020CB TEMPO 2908/2921 11005G12MPS

Decode

Destination Runways

ID Width Length Bearing (true/mag) Surface Threshold Overrun Markings Lighting
12 197 ft / 60 m 12,813 ft / 3,905 m 122.26° / 114.62° CONCRETE 0 ft / 0 m 0 ft / 0 m PREC-APP CENTERLINE EDGE THRESHOLD CALVERT-ILS TDZ
30 197 ft / 60 m 12,813 ft / 3,905 m 302.29° / 294.65° CONCRETE 0 ft / 0 m 0 ft / 0 m PREC-APP CENTERLINE EDGE THRESHOLD CALVERT TDZ

Approach Navaids

Runway Type Ident Frequency Range Bearing (true/mag) Slope Elevation
12 LOC-ILS IMD 111.70 MHz 18 nm / 33 km 122.27° / 114.63 ° - 1,046 ft / 319 m (AMSL)
12 GS IMD 111.70 MHz 10 nm / 19 km 122.27° / 114.63 ° 3.00° 1,046 ft / 319 m (AMSL)
30 LOC-ILS IMW 109.30 MHz 18 nm / 33 km 302.27° / 294.63 ° - 1,046 ft / 319 m (AMSL)
30 GS IMW 109.30 MHz 10 nm / 19 km 302.27° / 294.63 ° 3.00° 1,046 ft / 319 m (AMSL)